createdAt,value
2023-10-28T00:00:51.965Z,17.71
2023-10-28T00:03:19.928Z,17.94
2023-10-28T00:05:47.938Z,19.73
2023-10-28T00:08:15.650Z,19.74
2023-10-28T00:10:43.952Z,20.24
2023-10-28T00:13:13.067Z,18.39
2023-10-28T00:15:42.997Z,19.27
2023-10-28T00:18:11.020Z,18.38
2023-10-28T00:20:38.958Z,19.31
2023-10-28T00:23:08.152Z,17.67
2023-10-28T00:25:36.997Z,18.60
2023-10-28T00:28:05.141Z,17.24
2023-10-28T00:30:32.971Z,18.67
2023-10-28T00:33:03.242Z,18.87
2023-10-28T00:35:31.195Z,19.43
2023-10-28T00:37:59.399Z,19.35
2023-10-28T00:40:27.991Z,19.54
2023-10-28T00:42:57.302Z,18.96
2023-10-28T00:45:26.012Z,18.09
2023-10-28T00:47:55.122Z,19.18
2023-10-28T00:50:25.251Z,18.94
2023-10-28T00:52:56.108Z,18.90
2023-10-28T00:55:24.631Z,20.07
2023-10-28T00:57:53.486Z,18.56
2023-10-28T01:00:22.499Z,19.24
2023-10-28T01:02:50.601Z,19.14
2023-10-28T01:05:19.014Z,19.78
2023-10-28T01:07:50.460Z,18.83
2023-10-28T01:10:28.028Z,18.12
2023-10-28T01:12:55.723Z,20.10
2023-10-28T01:15:24.002Z,19.48
2023-10-28T01:17:52.233Z,18.49
2023-10-28T01:20:21.053Z,19.44
2023-10-28T01:22:50.242Z,19.21
2023-10-28T01:25:18.508Z,18.85
2023-10-28T01:27:46.341Z,18.50
2023-10-28T01:30:16.190Z,19.46
2023-10-28T01:32:44.247Z,18.23
2023-10-28T01:35:12.307Z,17.66
2023-10-28T01:37:40.084Z,17.91
2023-10-28T01:40:14.067Z,18.03
2023-10-28T01:42:42.841Z,18.66
2023-10-28T01:45:11.774Z,18.73
2023-10-28T01:47:41.066Z,18.85
2023-10-28T01:50:09.447Z,17.76
2023-10-28T01:52:38.237Z,18.42
2023-10-28T01:55:06.584Z,17.74
2023-10-28T01:57:45.802Z,18.99
2023-10-28T02:00:15.090Z,18.64
2023-10-28T02:02:43.704Z,19.59
2023-10-28T02:05:12.049Z,18.69
2023-10-28T02:07:40.249Z,19.46
2023-10-28T02:10:09.146Z,18.75
2023-10-28T02:12:37.143Z,18.67
2023-10-28T02:15:07.435Z,18.57
2023-10-28T02:17:37.231Z,19.45
2023-10-28T02:20:06.240Z,19.54
2023-10-28T02:22:34.119Z,19.90
2023-10-28T02:25:02.123Z,18.70
2023-10-28T02:27:29.847Z,18.16
2023-10-28T02:29:58.113Z,18.49
2023-10-28T02:32:27.345Z,18.99
2023-10-28T02:34:55.795Z,19.00
2023-10-28T02:37:24.145Z,19.89
2023-10-28T02:39:52.095Z,18.78
2023-10-28T02:42:20.271Z,19.27
2023-10-28T02:44:47.958Z,19.39
2023-10-28T02:47:17.204Z,19.54
2023-10-28T02:49:46.640Z,19.19
2023-10-28T02:52:15.125Z,19.16
2023-10-28T02:54:42.847Z,18.17
2023-10-28T02:57:10.920Z,19.18
2023-10-28T02:59:39.395Z,19.20
2023-10-28T03:02:07.470Z,17.53
2023-10-28T03:04:35.638Z,18.87
2023-10-28T03:07:05.110Z,19.63
2023-10-28T03:09:33.175Z,18.63
2023-10-28T03:12:00.886Z,19.52
2023-10-28T03:14:29.203Z,19.25
2023-10-28T03:16:57.445Z,19.67
2023-10-28T03:19:25.316Z,20.07
2023-10-28T03:21:53.073Z,19.86
2023-10-28T03:24:23.210Z,20.38
2023-10-28T03:26:50.891Z,18.78
2023-10-28T03:29:18.818Z,18.53
2023-10-28T03:31:46.866Z,18.97
2023-10-28T03:34:15.203Z,18.74
2023-10-28T03:36:42.923Z,20.46
2023-10-28T03:39:11.243Z,18.51
2023-10-28T03:41:41.303Z,18.59
2023-10-28T03:44:10.236Z,20.18
2023-10-28T03:46:37.993Z,19.56
2023-10-28T03:49:06.262Z,18.42
2023-10-28T03:51:35.369Z,18.55
2023-10-28T03:54:04.260Z,19.55
2023-10-28T03:56:31.950Z,18.14
2023-10-28T03:59:02.307Z,18.71
2023-10-28T04:01:30.075Z,18.07
2023-10-28T04:03:58.468Z,19.12
2023-10-28T04:06:26.317Z,19.69
2023-10-28T04:08:54.013Z,18.32
2023-10-28T04:11:21.714Z,19.38
2023-10-28T04:13:52.306Z,17.62
2023-10-28T04:16:22.318Z,19.59
2023-10-28T04:18:51.309Z,19.54
2023-10-28T04:21:19.333Z,19.43
2023-10-28T04:23:47.037Z,18.17
2023-10-28T04:26:15.495Z,19.62
2023-10-28T04:28:44.288Z,18.89
2023-10-28T04:31:12.097Z,18.61
2023-10-28T04:33:42.290Z,19.04
2023-10-28T04:36:11.319Z,20.40
2023-10-28T04:38:42.285Z,19.18
2023-10-28T04:41:10.732Z,18.47
2023-10-28T04:43:39.296Z,18.96
2023-10-28T04:46:09.928Z,18.59
2023-10-28T04:48:57.240Z,19.10
2023-10-28T04:51:26.304Z,18.63
2023-10-28T04:53:53.975Z,19.99
2023-10-28T04:56:22.316Z,18.63
2023-10-28T04:58:50.296Z,19.30
2023-10-28T05:01:18.198Z,18.94
2023-10-28T05:03:46.516Z,18.86
2023-10-28T05:06:16.108Z,18.19
2023-10-28T05:08:44.052Z,19.29
2023-10-28T05:11:17.687Z,19.73
2023-10-28T05:13:45.472Z,17.84
2023-10-28T05:16:13.334Z,19.81
2023-10-28T05:18:41.189Z,18.24
2023-10-28T05:21:10.341Z,20.09
2023-10-28T05:23:40.011Z,19.16
2023-10-28T05:26:08.397Z,20.20
2023-10-28T05:28:36.148Z,19.92
2023-10-28T05:31:05.380Z,17.91
2023-10-28T05:33:33.376Z,19.80
2023-10-28T05:36:01.372Z,18.36
2023-10-28T05:38:29.044Z,19.39
2023-10-28T05:40:59.396Z,19.92
2023-10-28T05:43:27.149Z,19.49
2023-10-28T05:45:55.389Z,20.84
2023-10-28T05:48:23.264Z,18.58
2023-10-28T05:50:50.931Z,18.69
2023-10-28T05:53:19.511Z,19.94
2023-10-28T05:55:47.551Z,19.28
2023-10-28T05:58:18.384Z,19.44
2023-10-28T06:00:46.070Z,19.60
2023-10-28T06:03:14.475Z,20.07
2023-10-28T06:05:42.216Z,19.06
2023-10-28T06:08:10.419Z,19.77
2023-10-28T06:10:38.154Z,18.55
2023-10-28T06:13:06.640Z,19.22
2023-10-28T06:15:35.733Z,19.85
2023-10-28T06:18:04.439Z,19.79
2023-10-28T06:20:48.492Z,19.88
2023-10-28T06:23:16.684Z,19.84
2023-10-28T06:25:44.642Z,19.62
2023-10-28T06:28:13.412Z,19.81
2023-10-28T06:30:48.680Z,19.52
2023-10-28T06:33:17.431Z,18.48
2023-10-28T06:35:46.052Z,17.51
2023-10-28T06:38:14.506Z,20.11
2023-10-28T06:40:43.425Z,19.46
2023-10-28T06:43:12.547Z,19.33
2023-10-28T06:45:40.227Z,18.70
2023-10-28T06:48:10.452Z,18.76
2023-10-28T06:50:38.485Z,19.35
2023-10-28T06:53:07.494Z,20.11
2023-10-28T06:55:36.274Z,19.22
2023-10-28T06:58:04.720Z,19.54
2023-10-28T07:00:33.032Z,20.93
2023-10-28T07:03:00.822Z,20.12
2023-10-28T07:05:30.485Z,19.62
2023-10-28T07:07:58.197Z,20.44
2023-10-28T07:10:27.477Z,19.81
2023-10-28T07:12:55.194Z,20.88
2023-10-28T07:15:22.991Z,19.03
2023-10-28T07:17:51.567Z,20.32
2023-10-28T07:20:20.591Z,18.23
2023-10-28T07:22:50.510Z,21.08
2023-10-28T07:25:29.175Z,20.05
2023-10-28T07:27:57.508Z,19.34
2023-10-28T07:30:25.616Z,21.11
2023-10-28T07:32:53.554Z,19.96
2023-10-28T07:35:21.488Z,21.44
2023-10-28T07:37:51.669Z,21.81
2023-10-28T07:40:19.874Z,21.21
2023-10-28T07:42:47.944Z,21.81
2023-10-28T07:45:16.049Z,21.16
2023-10-28T07:47:44.643Z,22.58
2023-10-28T07:50:12.423Z,22.13
2023-10-28T07:52:40.532Z,22.25
2023-10-28T07:55:10.516Z,21.08
2023-10-28T07:57:38.544Z,22.74
2023-10-28T08:00:12.103Z,20.45
2023-10-28T08:02:41.586Z,22.81
2023-10-28T08:05:11.208Z,21.26
2023-10-28T08:07:39.572Z,21.33
2023-10-28T08:10:09.958Z,21.46
2023-10-28T08:12:40.558Z,21.74
2023-10-28T08:15:09.842Z,21.36
2023-10-28T08:17:38.631Z,23.30
2023-10-28T08:20:07.340Z,22.00
2023-10-28T08:22:36.622Z,21.01
2023-10-28T08:25:05.617Z,22.12
2023-10-28T08:27:35.606Z,22.38
2023-10-28T08:30:03.985Z,22.28
2023-10-28T08:32:32.329Z,22.05
2023-10-28T08:35:01.312Z,21.17
2023-10-28T08:37:29.589Z,21.61
2023-10-28T08:39:57.298Z,21.75
2023-10-28T08:42:25.865Z,20.99
2023-10-28T08:44:55.337Z,22.96
2023-10-28T08:47:25.661Z,21.52
2023-10-28T08:49:53.639Z,21.49
2023-10-28T08:52:23.658Z,22.41
2023-10-28T08:54:52.724Z,22.24
2023-10-28T08:57:20.611Z,21.57
2023-10-28T08:59:48.550Z,22.41
2023-10-28T09:02:19.486Z,22.42
2023-10-28T09:04:47.641Z,22.31
2023-10-28T09:07:15.958Z,21.68
2023-10-28T09:09:46.363Z,20.54
2023-10-28T09:12:14.556Z,22.17
2023-10-28T09:14:42.338Z,23.67
2023-10-28T09:17:11.646Z,21.67
2023-10-28T09:19:41.009Z,23.76
2023-10-28T09:22:11.637Z,21.56
2023-10-28T09:24:39.416Z,22.63
2023-10-28T09:27:07.116Z,21.21
2023-10-28T09:29:35.656Z,21.20
2023-10-28T09:32:09.190Z,20.61
2023-10-28T09:34:43.665Z,21.15
2023-10-28T09:37:13.116Z,20.96
2023-10-28T09:39:42.683Z,20.65
2023-10-28T09:42:11.645Z,20.79
2023-10-28T09:44:40.838Z,20.37
2023-10-28T09:47:08.740Z,20.78
2023-10-28T09:49:44.886Z,21.73
2023-10-28T09:52:13.515Z,21.92
2023-10-28T09:54:44.711Z,20.93
2023-10-28T09:57:12.455Z,21.43
2023-10-28T09:59:42.709Z,21.52
2023-10-28T10:02:22.192Z,20.83
2023-10-28T10:04:56.732Z,22.73
2023-10-28T10:07:24.498Z,21.75
2023-10-28T10:09:52.761Z,21.88
2023-10-28T10:12:20.517Z,21.84
2023-10-28T10:14:49.161Z,21.53
2023-10-28T10:17:24.815Z,23.25
2023-10-28T10:19:54.617Z,22.14
2023-10-28T10:22:30.797Z,22.04
2023-10-28T10:24:58.975Z,22.46
2023-10-28T10:27:36.791Z,21.39
2023-10-28T10:30:07.660Z,22.96
2023-10-28T10:32:48.776Z,22.18
2023-10-28T10:35:31.355Z,20.53
2023-10-28T10:38:03.952Z,22.50
2023-10-28T10:40:33.707Z,21.98
2023-10-28T10:43:08.760Z,22.52
2023-10-28T10:45:37.177Z,23.13
2023-10-28T10:48:09.826Z,20.67
2023-10-28T10:50:39.471Z,23.15
2023-10-28T10:53:08.077Z,20.65
2023-10-28T10:55:36.261Z,20.75
2023-10-28T10:58:04.915Z,21.21
2023-10-28T11:00:34.790Z,20.41
2023-10-28T11:03:04.928Z,20.52
2023-10-28T11:05:33.330Z,21.41
2023-10-28T11:08:03.812Z,20.51
2023-10-28T11:10:31.604Z,20.84
2023-10-28T11:12:59.786Z,21.22
2023-10-28T11:15:27.510Z,22.89
2023-10-28T11:17:55.318Z,21.99
2023-10-28T11:20:23.878Z,23.36
2023-10-28T11:22:52.162Z,23.59
2023-10-28T11:25:21.819Z,23.18
2023-10-28T11:27:53.052Z,23.09
2023-10-28T11:30:22.821Z,23.66
2023-10-28T11:32:52.769Z,22.35
2023-10-28T11:35:20.887Z,23.06
2023-10-28T11:37:48.660Z,24.16
2023-10-28T11:40:18.810Z,22.72
2023-10-28T11:42:47.939Z,22.60
2023-10-28T11:45:16.845Z,23.63
2023-10-28T11:47:44.557Z,23.90
2023-10-28T11:50:12.995Z,23.59
2023-10-28T11:52:42.745Z,21.76
2023-10-28T11:55:11.893Z,22.25
2023-10-28T11:57:39.650Z,23.22
2023-10-28T12:00:12.844Z,22.34
2023-10-28T12:02:40.657Z,22.39
2023-10-28T12:05:09.913Z,22.48
2023-10-28T12:07:37.783Z,22.70
2023-10-28T12:10:07.972Z,22.79
2023-10-28T12:12:36.502Z,22.14
2023-10-28T12:15:04.817Z,22.98
2023-10-28T12:17:34.068Z,22.33
2023-10-28T12:20:02.923Z,22.79
2023-10-28T12:22:31.029Z,21.51
2023-10-28T12:24:58.894Z,23.55
2023-10-28T12:27:26.829Z,22.69
2023-10-28T12:29:54.505Z,21.77
2023-10-28T12:32:22.931Z,23.48
2023-10-28T12:34:52.037Z,22.49
2023-10-28T12:37:19.911Z,22.73
2023-10-28T12:39:48.092Z,22.98
2023-10-28T12:42:16.961Z,23.96
2023-10-28T12:44:44.913Z,21.09
2023-10-28T12:47:14.127Z,23.29
2023-10-28T12:49:41.866Z,22.05
2023-10-28T12:52:11.328Z,22.29
2023-10-28T12:54:39.941Z,22.42
2023-10-28T12:57:08.802Z,21.68
2023-10-28T12:59:37.114Z,24.21
2023-10-28T13:02:05.748Z,22.38
2023-10-28T13:04:33.945Z,22.93
2023-10-28T13:07:01.640Z,22.45
2023-10-28T13:09:30.973Z,23.48
2023-10-28T13:12:00.376Z,24.03
2023-10-28T13:14:29.995Z,23.03
2023-10-28T13:16:59.181Z,22.80
2023-10-28T13:19:26.914Z,23.65
2023-10-28T13:21:54.974Z,24.52
2023-10-28T13:24:22.685Z,24.64
2023-10-28T13:26:52.050Z,24.87
2023-10-28T13:29:20.031Z,24.14
2023-10-28T13:31:48.670Z,23.83
2023-10-28T13:34:17.005Z,23.38
2023-10-28T13:36:46.107Z,23.57
2023-10-28T13:39:14.312Z,23.58
2023-10-28T13:41:42.394Z,22.38
2023-10-28T13:44:11.991Z,24.64
2023-10-28T13:46:40.721Z,24.93
2023-10-28T13:49:09.022Z,24.19
2023-10-28T13:51:36.691Z,22.20
2023-10-28T13:54:04.412Z,18.99
2023-10-28T13:56:33.075Z,16.67
2023-10-28T13:59:04.946Z,24.81
2023-10-28T14:01:35.118Z,22.83
2023-10-28T14:04:04.994Z,23.88
2023-10-28T14:06:34.032Z,24.06
2023-10-28T14:09:01.852Z,24.50
2023-10-28T14:11:30.117Z,23.11
2023-10-28T14:13:58.730Z,22.72
2023-10-28T14:16:27.049Z,23.86
2023-10-28T14:18:56.477Z,23.34
2023-10-28T14:21:25.055Z,21.85
2023-10-28T14:23:53.356Z,22.10
2023-10-28T14:26:22.243Z,22.79
2023-10-28T14:28:50.323Z,22.47
2023-10-28T14:31:19.131Z,21.10
2023-10-28T14:33:47.329Z,19.74
2023-10-28T14:36:18.081Z,21.78
2023-10-28T14:38:45.792Z,20.67
2023-10-28T14:41:15.071Z,21.79
2023-10-28T14:43:42.815Z,22.05
2023-10-28T14:46:12.095Z,23.67
2023-10-28T14:48:39.913Z,21.81
2023-10-28T14:51:09.215Z,22.77
2023-10-28T14:53:39.180Z,21.98
2023-10-28T14:56:12.502Z,22.25
2023-10-28T14:58:41.136Z,23.93
2023-10-28T15:01:10.766Z,23.69
2023-10-28T15:03:39.484Z,21.98
2023-10-28T15:06:08.175Z,21.68
2023-10-28T15:08:36.255Z,20.40
2023-10-28T15:11:07.380Z,21.52
2023-10-28T15:13:36.128Z,20.40
2023-10-28T15:16:05.442Z,20.52
2023-10-28T15:18:34.124Z,19.81
2023-10-28T15:21:08.791Z,19.15
2023-10-28T15:23:36.512Z,20.42
2023-10-28T15:26:12.194Z,20.56
2023-10-28T15:28:41.845Z,20.17
2023-10-28T15:31:11.152Z,20.62
2023-10-28T15:33:38.950Z,21.45
2023-10-28T15:36:11.169Z,21.78
2023-10-28T15:38:39.345Z,20.75
2023-10-28T15:41:08.278Z,21.12
2023-10-28T15:43:39.565Z,21.57
2023-10-28T15:46:12.046Z,22.13
2023-10-28T15:48:41.162Z,22.19
2023-10-28T15:51:09.464Z,21.44
2023-10-28T15:53:38.236Z,21.93
2023-10-28T15:56:06.852Z,21.37
2023-10-28T15:58:34.594Z,20.76
2023-10-28T16:01:04.178Z,22.47
2023-10-28T16:03:32.155Z,21.32
2023-10-28T16:06:03.181Z,21.73
2023-10-28T16:08:31.395Z,19.94
2023-10-28T16:11:00.182Z,21.77
2023-10-28T16:13:27.987Z,21.98
2023-10-28T16:15:56.259Z,23.46
2023-10-28T16:18:25.623Z,22.05
2023-10-28T16:20:54.409Z,22.39
2023-10-28T16:23:22.264Z,22.40
2023-10-28T16:25:50.004Z,22.68
2023-10-28T16:28:20.216Z,22.68
2023-10-28T16:30:49.786Z,22.72
2023-10-28T16:33:18.375Z,21.69
2023-10-28T16:35:47.634Z,21.50
2023-10-28T16:38:27.396Z,20.56
2023-10-28T16:40:58.256Z,22.05
2023-10-28T16:43:27.369Z,22.42
2023-10-28T16:46:00.279Z,22.23
2023-10-28T16:48:28.068Z,22.54
2023-10-28T16:50:58.233Z,20.83
2023-10-28T16:53:26.981Z,20.97
2023-10-28T16:56:05.455Z,22.99
2023-10-28T16:58:33.448Z,23.62
2023-10-28T17:01:03.300Z,21.96
2023-10-28T17:03:31.590Z,22.57
2023-10-28T17:06:02.893Z,23.43
2023-10-28T17:08:30.690Z,22.48
2023-10-28T17:11:00.279Z,22.23
2023-10-28T17:13:28.140Z,21.01
2023-10-28T17:15:56.294Z,20.45
2023-10-28T17:18:24.022Z,22.12
2023-10-28T17:20:52.418Z,22.48
2023-10-28T17:23:21.810Z,21.97
2023-10-28T17:25:50.425Z,19.26
2023-10-28T17:28:18.413Z,21.35
2023-10-28T17:30:46.312Z,22.39
2023-10-28T17:33:14.178Z,20.80
2023-10-28T17:35:43.438Z,21.40
2023-10-28T17:38:11.740Z,21.46
2023-10-28T17:40:41.285Z,21.11
2023-10-28T17:43:10.857Z,20.60
2023-10-28T17:45:40.494Z,19.15
2023-10-28T17:48:09.353Z,21.11
2023-10-28T17:50:37.131Z,19.99
2023-10-28T17:53:05.320Z,19.62
2023-10-28T17:55:33.088Z,20.90
2023-10-28T17:58:02.344Z,20.87
2023-10-28T18:00:30.487Z,21.17
2023-10-28T18:03:00.453Z,20.32
2023-10-28T18:05:28.269Z,19.44
2023-10-28T18:07:56.470Z,20.34
2023-10-28T18:10:24.293Z,21.23
2023-10-28T18:12:54.419Z,21.56
2023-10-28T18:15:23.837Z,20.85
2023-10-28T18:17:52.422Z,19.24
2023-10-28T18:20:20.384Z,21.27
2023-10-28T18:22:48.431Z,18.84
2023-10-28T18:25:16.419Z,19.10
2023-10-28T18:27:44.210Z,20.43
2023-10-28T18:30:13.356Z,19.23
2023-10-28T18:32:42.946Z,20.74
2023-10-28T18:35:12.431Z,18.06
2023-10-28T18:37:40.426Z,19.70
2023-10-28T18:40:09.392Z,19.31
2023-10-28T18:42:37.480Z,19.54
2023-10-28T18:45:06.406Z,19.25
2023-10-28T18:47:36.963Z,19.19
2023-10-28T18:50:08.310Z,18.92
2023-10-28T18:52:36.498Z,18.95
2023-10-28T18:55:05.883Z,20.44
2023-10-28T18:57:34.405Z,20.77
2023-10-28T19:00:02.165Z,20.76
2023-10-28T19:02:30.466Z,19.37
2023-10-28T19:04:58.291Z,20.47
2023-10-28T19:07:27.423Z,20.22
2023-10-28T19:09:58.560Z,20.44
2023-10-28T19:12:26.541Z,20.53
2023-10-28T19:14:54.274Z,19.08
2023-10-28T19:17:22.295Z,20.14
2023-10-28T19:19:51.450Z,19.97
2023-10-28T19:22:21.405Z,19.68
2023-10-28T19:24:51.446Z,19.84
2023-10-28T19:27:19.096Z,21.00
2023-10-28T19:29:48.593Z,21.28
2023-10-28T19:32:16.453Z,20.83
2023-10-28T19:34:44.452Z,20.96
2023-10-28T19:37:12.171Z,21.91
2023-10-28T19:39:40.469Z,19.63
2023-10-28T19:42:09.677Z,19.98
2023-10-28T19:44:38.498Z,19.78
2023-10-28T19:47:06.305Z,20.92
2023-10-28T19:49:34.119Z,20.06
2023-10-28T19:52:02.481Z,20.80
2023-10-28T19:54:31.506Z,20.64
2023-10-28T19:56:59.195Z,22.31
2023-10-28T19:59:29.492Z,20.55
2023-10-28T20:01:57.209Z,21.58
2023-10-28T20:04:25.495Z,21.08
2023-10-28T20:06:54.129Z,21.93
2023-10-28T20:09:22.941Z,21.95
2023-10-28T20:11:52.495Z,21.69
2023-10-28T20:14:21.310Z,20.76
2023-10-28T20:16:50.611Z,21.62
2023-10-28T20:19:19.506Z,21.18
2023-10-28T20:21:47.370Z,21.11
2023-10-28T20:24:15.523Z,21.28
2023-10-28T20:26:44.501Z,21.37
2023-10-28T20:29:12.826Z,21.66
2023-10-28T20:31:41.528Z,19.75
2023-10-28T20:34:12.357Z,20.89
2023-10-28T20:36:40.673Z,21.80
2023-10-28T20:39:09.624Z,19.63
2023-10-28T20:41:37.564Z,20.19
2023-10-28T20:44:05.858Z,19.59
2023-10-28T20:46:34.538Z,20.79
2023-10-28T20:49:02.478Z,21.44
2023-10-28T20:51:31.596Z,20.45
2023-10-28T20:54:00.547Z,20.71
2023-10-28T20:56:28.562Z,20.68
2023-10-28T20:58:56.294Z,20.21
2023-10-28T21:01:24.615Z,20.87
2023-10-28T21:03:52.409Z,20.14
2023-10-28T21:06:20.720Z,21.32
2023-10-28T21:08:49.838Z,21.21
2023-10-28T21:11:18.582Z,20.96
2023-10-28T21:13:46.617Z,21.15
2023-10-28T21:16:15.596Z,20.20
2023-10-28T21:18:44.654Z,21.03
2023-10-28T21:21:12.723Z,20.95
2023-10-28T21:23:40.468Z,20.15
2023-10-28T21:26:10.592Z,21.75
2023-10-28T21:28:39.381Z,21.04
2023-10-28T21:31:07.838Z,21.42
2023-10-28T21:33:35.673Z,20.62
2023-10-28T21:36:04.653Z,20.21
2023-10-28T21:38:32.658Z,20.42
2023-10-28T21:41:01.200Z,20.89
2023-10-28T21:43:30.625Z,20.49
2023-10-28T21:46:00.014Z,20.10
2023-10-28T21:48:28.783Z,19.92
2023-10-28T21:50:56.710Z,19.99
2023-10-28T21:53:25.833Z,20.00
2023-10-28T21:55:53.600Z,20.58
2023-10-28T21:58:21.623Z,20.60
2023-10-28T22:00:51.564Z,20.52
2023-10-28T22:03:19.780Z,20.42
2023-10-28T22:05:47.901Z,19.88
2023-10-28T22:08:16.785Z,22.07
2023-10-28T22:10:44.658Z,20.83
2023-10-28T22:13:14.769Z,20.90
2023-10-28T22:15:43.316Z,20.72
2023-10-28T22:18:14.662Z,20.99
2023-10-28T22:20:43.844Z,21.63
2023-10-28T22:23:12.154Z,19.77
2023-10-28T22:25:41.691Z,19.48
2023-10-28T22:28:15.398Z,20.39
2023-10-28T22:30:44.670Z,20.23
2023-10-28T22:33:14.694Z,20.22
2023-10-28T22:35:43.697Z,20.73
2023-10-28T22:38:13.546Z,20.29
2023-10-28T22:40:42.680Z,20.99
2023-10-28T22:43:10.908Z,20.45
2023-10-28T22:45:39.726Z,20.46
2023-10-28T22:48:07.599Z,20.10
2023-10-28T22:50:39.208Z,20.45
2023-10-28T22:53:07.045Z,21.41
2023-10-28T22:55:35.710Z,19.90
2023-10-28T22:58:03.749Z,20.57
2023-10-28T23:00:34.745Z,20.46
2023-10-28T23:03:08.248Z,21.17
2023-10-28T23:05:37.824Z,21.40
2023-10-28T23:08:06.191Z,21.14
2023-10-28T23:10:34.721Z,20.97
2023-10-28T23:13:02.437Z,19.96
2023-10-28T23:15:32.004Z,20.05
2023-10-28T23:18:00.832Z,20.41
2023-10-28T23:20:28.746Z,21.04
2023-10-28T23:22:58.748Z,22.16
2023-10-28T23:25:26.456Z,21.03
2023-10-28T23:27:54.783Z,19.72
2023-10-28T23:30:24.651Z,20.92
2023-10-28T23:32:53.806Z,21.45
2023-10-28T23:35:21.945Z,20.46
2023-10-28T23:37:49.788Z,21.47
2023-10-28T23:40:19.403Z,20.82
2023-10-28T23:42:47.755Z,21.13
2023-10-28T23:45:15.702Z,22.01
2023-10-28T23:47:44.296Z,20.83
2023-10-28T23:50:12.793Z,20.96
2023-10-28T23:52:41.038Z,20.64
2023-10-28T23:55:09.299Z,20.78
2023-10-28T23:57:39.800Z,21.38
